Corso, Missouri
Current Conditions -  °F | °C
As of 7:54 AM on Friday 19 Dec 2014 (Local Time) from KSET Reporting Station
Haze Haze  
Wind Chill: 25°   Ceiling: 6500
Heat Index: 31°   Visibility: 5mi
Dew Point: 27°   Wind: 6mph
Humidity: 85%   Direction: 80°E
Pressure: 30.31"   Gusts: NA
Location:  39.1404°N, 91.0631°W
Report Text: KSET 191354Z AUTO 08005KT 5SM BR OVC065 M01/M03 A3031 RMK AO2 SLP267 T10061028
Loading
Personal Weather Stations






























Interactive Weather Map New forecast layout! Learn more

10-Day Weather Forecast

Advertisements
Track Severe Weather on mobile